Latest Weather Observations for Strahan

IDT60801

Issued at 5:02 pm EDT Wednesday 22 February 2017 (issued every 30 minutes, with the page automatically refreshed every 10 minutes)

About weather observations | Map of weather stations | Latest weather observations for TAS | Other Formats
Station Details ID: 097072 Name: STRAHAN AERODROME Lat: -42.16 Lon: 145.29 Height: 21.0 m
Data from the previous 72 hours. | See also: Recent months at Strahan
Date/Time
EDT
Temp
°C
App
Temp
°C
Dew
Point
°C
Rel
Hum
%
Delta-T
°C
Wind Press
QNH
hPa
Press
MSL
hPa
Rain since
9am
mm
Dir  Spd
km/h
Gust
km/h
Spd
kts
Gust
kts
22/04:32pm 25.7 20.0 8.2 33 9.4 N 28 46 15 25 1008.7 1008.7 0.0
22/04:30pm 25.7 20.3 8.2 33 9.4 N 26 46 14 25 1008.7 1008.7 0.0
22/04:00pm 26.8 21.3 9.2 33 9.7 N 28 43 15 23 1009.0 1009.0 0.0
22/03:30pm 26.4 20.2 9.3 34 9.4 NNE 32 46 17 25 1009.3 1009.3 0.0
22/03:15pm 26.6 21.2 9.5 34 9.4 N 28 48 15 26 1009.7 1009.7 0.0
22/03:00pm 26.1 20.7 9.5 35 9.1 N 28 43 15 23 1009.9 1009.9 0.0
22/02:30pm 25.1 19.3 9.4 37 8.6 NNE 30 48 16 26 1010.2 1010.2 0.0
22/02:00pm 25.8 20.0 9.6 36 8.9 N 30 50 16 27 1010.5 1010.5 0.0
22/01:31pm 25.4 20.2 10.4 39 8.3 NNE 28 46 15 25 1010.9 1010.9 0.0
22/01:30pm 25.4 20.6 10.4 39 8.3 NNE 26 46 14 25 1010.9 1010.9 0.0
22/01:00pm 24.0 17.8 9.2 39 8.0 N 32 50 17 27 1011.7 1011.7 0.0
22/12:42pm 23.8 18.3 9.0 39 8.0 NNE 28 46 15 25 1011.9 1011.9 0.0
22/12:30pm 23.6 18.3 9.9 42 7.5 NNE 28 43 15 23 1012.1 1012.1 0.0
22/12:15pm 23.5 17.7 9.5 41 7.6 N 30 50 16 27 1012.3 1012.3 0.0
22/12:00pm 23.3 17.5 9.3 41 7.6 N 30 43 16 23 1012.5 1012.5 0.0
22/11:30am 23.1 18.9 9.8 43 7.2 N 22 41 12 22 1012.8 1012.8 0.0
22/11:00am 21.5 16.4 7.7 41 7.2 NNE 24 39 13 21 1013.0 1013.0 0.0
22/10:30am 21.1 16.0 7.7 42 6.9 NNE 24 39 13 21 1013.3 1013.3 0.0
22/10:00am 19.6 15.1 8.6 49 5.7 NNE 22 32 12 17 1013.4 1013.4 0.0
22/09:30am 17.1 13.1 8.3 56 4.5 NE 19 35 10 19 1013.7 1013.7 0.0
22/09:00am 14.0 10.3 7.8 66 3.1 NE 17 24 9 13 1014.2 1014.2 0.0
22/08:30am 13.0 9.0 8.1 72 2.4 NNE 19 24 10 13 1014.2 1014.2 0.0
22/08:00am 10.4 8.0 7.1 80 1.6 NE 9 15 5 8 1014.4 1014.4 0.0
22/07:30am 8.4 7.2 6.5 88 0.9 NW 2 6 1 3 1014.6 1014.6 0.0
22/07:00am 7.6 5.3 5.9 89 0.8 N 7 9 4 5 1014.6 1014.6 0.0
22/06:30am 7.8 5.6 6.3 90 0.7 NE 7 9 4 5 1014.5 1014.5 0.0
22/06:00am 7.8 5.7 6.6 92 0.6 NNE 7 9 4 5 1014.5 1014.5 0.0
22/05:30am 7.1 6.2 5.9 92 0.5 CALM 0 0 0 0 1014.5 1014.5 0.0
22/05:00am 7.4 4.8 6.3 93 0.5 E 9 9 5 5 1014.5 1014.5 0.0
22/04:30am 6.9 4.7 5.5 91 0.6 E 6 7 3 4 1015.0 1015.0 0.0
22/04:00am 8.1 5.3 7.0 93 0.5 NE 11 13 6 7 1015.7 1015.6 0.0
22/03:30am 7.9 5.8 6.8 93 0.5 NNE 7 11 4 6 1015.9 1015.8 0.0
22/03:00am 7.7 5.6 6.6 93 0.5 NE 7 9 4 5 1016.3 1016.2 0.0
22/02:30am 8.1 5.7 7.0 93 0.5 NE 9 13 5 7 1017.1 1017.0 0.0
22/02:00am 8.2 6.2 7.1 93 0.5 NE 7 11 4 6 1017.5 1017.4 0.0
22/01:30am 7.9 6.0 6.7 92 0.6 NE 6 9 3 5 1018.0 1017.9 0.0
22/01:00am 8.3 5.9 7.1 92 0.6 NNE 9 11 5 6 1018.4 1018.3 0.0
22/12:30am 8.3 6.3 7.2 93 0.5 NNE 7 11 4 6 1018.5 1018.4 0.0
22/12:00am 8.0 5.6 6.8 92 0.6 N 9 11 5 6 1018.6 1018.5 0.0
 
Date/Time
EDT
Temp
°C
App
Temp
°C
Dew
Point
°C
Rel
Hum
%
Delta-T
°C
Wind Press
QNH
hPa
Press
MSL
hPa
Rain since
9am
mm
Dir  Spd
km/h
Gust
km/h
Spd
kts
Gust
kts
21/11:30pm 8.4 6.6 7.0 91 0.7 NE 6 7 3 4 1018.6 1018.5 0.0
21/11:00pm 9.0 7.1 7.6 91 0.7 NNE 7 9 4 5 1018.9 1018.8 0.0
21/10:30pm 9.1 6.8 7.5 90 0.8 NE 9 9 5 5 1019.1 1019.0 0.0
21/10:00pm 8.8 6.9 6.8 87 0.9 N 6 7 3 4 1019.4 1019.3 0.0
21/09:30pm 10.0 8.4 7.9 87 1.0 SW 6 7 3 4 1019.4 1019.3 0.0
21/09:00pm 10.4 8.5 7.5 82 1.4 SSW 7 9 4 5 1019.5 1019.4 0.0
21/08:30pm 12.0 10.5 8.3 78 1.8 SW 6 7 3 4 1019.6 1019.5 0.0
21/08:00pm 12.9 11.1 7.8 71 2.5 SW 7 11 4 6 1019.4 1019.3 0.0
21/07:30pm 14.4 11.9 8.1 66 3.1 WSW 11 15 6 8 1019.3 1019.2 0.0
21/07:00pm 15.3 12.8 8.1 62 3.6 WSW 11 13 6 7 1019.0 1018.9 0.0
21/06:30pm 15.9 13.1 8.6 62 3.7 W 13 17 7 9 1019.1 1019.0 0.0
21/06:00pm 15.8 12.8 7.6 58 4.1 W 13 17 7 9 1018.9 1018.8 0.0
21/05:30pm 16.8 14.1 8.8 59 4.1 W 13 19 7 10 1019.0 1018.9 0.0
21/05:00pm 16.5 13.4 9.0 61 3.9 W 15 22 8 12 1019.3 1019.2 0.0
21/04:30pm 16.5 13.8 9.0 61 3.9 WSW 13 20 7 11 1019.5 1019.4 0.0
21/04:00pm 16.3 12.4 7.3 55 4.5 W 17 24 9 13 1019.8 1019.7 0.0
21/03:30pm 16.8 13.8 7.7 55 4.6 W 13 19 7 10 1019.6 1019.5 0.0
21/03:00pm 17.0 13.3 7.9 55 4.6 W 17 26 9 14 1019.7 1019.6 0.0
21/02:30pm 16.8 12.9 7.2 53 4.8 W 17 24 9 13 1020.1 1020.0 0.0
21/02:00pm 16.9 13.0 7.3 53 4.8 W 17 26 9 14 1020.1 1020.0 0.0
21/01:30pm 16.6 12.5 7.8 56 4.4 WSW 19 26 10 14 1020.4 1020.3 0.0
21/01:00pm 16.9 12.8 7.8 55 4.6 WSW 19 28 10 15 1020.6 1020.5 0.0
21/12:30pm 16.8 12.5 8.0 56 4.5 WSW 20 28 11 15 1020.6 1020.5 0.0
21/12:00pm 16.5 12.6 8.7 60 4.0 WSW 19 26 10 14 1020.5 1020.4 0.0
21/11:30am 14.7 11.7 7.5 62 3.6 SW 13 28 7 15 1020.5 1020.4 0.0
21/11:00am 14.5 12.0 8.2 66 3.1 WSW 11 17 6 9 1020.4 1020.3 0.0
21/10:30am 14.2 12.6 8.2 67 3.0 SE 6 11 3 6 1020.2 1020.1 0.0
21/10:00am 15.2 12.9 9.1 67 3.1 ESE 11 15 6 8 1019.9 1019.8 0.0
21/09:30am 13.8 12.0 9.6 76 2.2 E 9 11 5 6 1019.8 1019.7 0.0
21/09:00am 12.6 11.2 9.6 82 1.5 ESE 7 11 4 6 1019.7 1019.6 0.0
21/08:30am 12.2 11.6 10.3 88 1.0 NE 4 7 2 4 1019.3 1019.2 0.0
21/08:00am 11.1 9.9 9.7 91 0.7 NE 6 7 3 4 1019.0 1018.9 0.0
21/07:30am 9.1 7.3 7.9 92 0.6 NNE 7 7 4 4 1018.6 1018.5 0.0
21/07:00am 9.2 7.6 8.0 92 0.6 NE 6 9 3 5 1018.2 1018.1 0.0
21/06:30am 9.2 7.4 8.0 92 0.6 NE 7 9 4 5 1017.9 1017.8 0.0
21/06:00am 9.4 7.7 8.2 92 0.6 N 7 9 4 5 1017.6 1017.5 0.0
21/05:30am 9.2 7.4 8.0 92 0.6 NNE 7 11 4 6 1017.0 1016.9 0.0
21/05:00am 9.2 7.4 8.1 93 0.5 NNE 7 9 4 5 1016.8 1016.7 0.0
21/04:30am 9.2 7.1 8.1 93 0.5 NE 9 11 5 6 1016.4 1016.3 0.0
21/04:00am 9.3 8.5 8.1 92 0.6 NNE 2 7 1 4 1016.2 1016.1 0.0
21/03:30am 9.8 8.4 8.7 93 0.5 NE 6 7 3 4 1016.1 1016.0 0.0
21/03:00am 9.9 8.5 8.8 93 0.5 ENE 6 7 3 4 1016.0 1015.9 0.0
21/02:30am 9.6 8.1 8.4 92 0.6 ENE 6 7 3 4 1015.5 1015.5 0.0
21/02:00am 9.3 8.8 7.9 91 0.7 CALM 0 0 0 0 1015.5 1015.5 0.0
21/01:30am 10.4 10.2 9.0 91 0.7 CALM 0 0 0 0 1015.5 1015.5 0.0
21/01:00am 10.8 8.9 9.1 89 0.8 ENE 9 11 5 6 1015.3 1015.3 0.0
21/12:30am 11.4 9.5 9.1 86 1.1 SSE 9 13 5 7 1015.4 1015.4 0.0
21/12:00am 12.5 9.6 9.7 83 1.4 SSE 15 20 8 11 1015.3 1015.3 0.0
 
Date/Time
EDT
Temp
°C
App
Temp
°C
Dew
Point
°C
Rel
Hum
%
Delta-T
°C
Wind Press
QNH
hPa
Press
MSL
hPa
Rain since
9am
mm
Dir  Spd
km/h
Gust
km/h
Spd
kts
Gust
kts
20/11:30pm 12.6 9.3 9.6 82 1.5 S 17 20 9 11 1015.2 1015.2 0.0
20/11:00pm 13.3 10.5 9.9 80 1.7 SSE 15 20 8 11 1014.8 1014.8 0.0
20/10:30pm 14.0 10.3 10.2 78 2.0 SSE 20 28 11 15 1014.7 1014.7 0.0
20/10:00pm 14.1 10.6 10.1 77 2.1 SSE 19 28 10 15 1014.4 1014.4 0.0
20/09:30pm 13.5 11.0 10.9 84 1.4 S 15 20 8 11 1014.1 1014.1 0.0
20/09:00pm 14.0 10.5 11.0 82 1.6 S 20 28 11 15 1013.6 1013.6 0.0
20/08:30pm 14.1 10.7 11.3 83 1.5 SSW 20 30 11 16 1013.1 1013.1 0.0
20/08:00pm 14.6 11.1 11.0 79 1.9 SSW 20 28 11 15 1012.6 1012.6 0.0
20/07:30pm 15.5 11.2 10.7 73 2.5 SW 24 30 13 16 1012.1 1012.1 0.0
20/07:00pm 16.7 12.9 11.0 69 3.1 SW 22 32 12 17 1011.6 1011.6 0.0
20/06:30pm 16.4 12.6 11.1 71 2.8 SW 22 32 12 17 1011.3 1011.3 0.0
20/06:00pm 17.6 14.2 11.2 66 3.5 SW 20 26 11 14 1010.9 1010.9 0.0
20/05:30pm 17.7 13.8 10.8 64 3.7 SSW 22 30 12 16 1010.6 1010.6 0.0
20/05:00pm 17.7 13.1 9.8 60 4.2 SW 24 32 13 17 1010.4 1010.4 0.0
20/04:30pm 18.4 14.0 10.5 60 4.2 SSW 24 32 13 17 1010.2 1010.2 0.0
20/04:00pm 17.7 12.5 8.8 56 4.6 SW 26 35 14 19 1010.0 1010.0 0.0
20/03:30pm 17.9 12.7 10.3 61 4.1 WSW 28 35 15 19 1009.8 1009.8 0.0
20/03:00pm 17.8 12.8 9.7 59 4.3 WSW 26 35 14 19 1009.7 1009.7 0.0
20/02:30pm 17.7 13.7 10.6 63 3.8 WSW 22 32 12 17 1009.7 1009.7 0.0
20/02:00pm 16.0 12.4 9.9 67 3.2 SSW 19 28 10 15 1009.8 1009.8 0.0
20/01:30pm 15.3 11.5 9.9 70 2.8 W 20 28 11 15 1009.8 1009.8 0.0
20/01:00pm 16.8 13.6 11.3 70 3.0 WSW 19 26 10 14 1009.9 1009.9 0.0
20/12:30pm 16.5 13.1 11.4 72 2.8 W 20 26 11 14 1009.8 1009.8 0.0
20/12:00pm 16.3 14.2 9.7 65 3.5 SSE 11 17 6 9 1009.8 1009.8 0.0
20/11:30am 15.5 13.3 9.2 66 3.2 S 11 15 6 8 1009.8 1009.8 0.0
20/11:00am 15.6 14.1 10.4 71 2.7 SSW 9 15 5 8 1009.9 1009.9 0.0
20/10:30am 13.6 11.4 8.0 69 2.8 SSE 9 13 5 7 1009.7 1009.7 0.0
20/10:00am 12.8 11.3 8.5 75 2.1 SSE 6 11 3 6 1009.4 1009.4 0.0
20/09:30am 11.8 10.8 8.8 82 1.5 SSE 4 9 2 5 1009.3 1009.3 0.0
20/09:00am 10.9 9.3 8.8 87 1.0 ESE 7 11 4 6 1009.2 1009.2 8.4
20/08:30am 9.4 7.7 8.3 93 0.5 NE 7 9 4 5 1008.9 1008.9 8.4
20/08:00am 7.6 5.7 6.7 94 0.4 N 6 7 3 4 1009.0 1009.0 8.4
20/07:30am 6.5 4.2 5.8 95 0.3 NNE 7 9 4 5 1008.6 1008.6 8.4
20/07:00am 5.9 3.5 5.2 95 0.3 ENE 7 9 4 5 1008.4 1008.4 8.4
20/06:30am 5.8 3.6 5.1 95 0.3 NNE 6 7 3 4 1008.2 1008.2 8.4
20/06:00am 5.5 3.5 4.6 94 0.4 NE 4 7 2 4 1007.7 1007.7 8.4
20/05:30am 5.8 3.0 5.1 95 0.3 NNE 9 11 5 6 1007.6 1007.6 8.2
20/05:00am 5.6 2.7 4.9 95 0.3 NE 9 11 5 6 1007.5 1007.5 8.2
20/04:30am 5.5 3.2 4.6 94 0.4 NNE 6 7 3 4 1007.4 1007.4 8.2
20/04:00am 5.6 2.7 4.9 95 0.3 NNE 9 11 5 6 1007.1 1007.1 8.2
20/03:30am 5.5 3.0 4.8 95 0.3 NW 7 9 4 5 1007.1 1007.1 8.2
20/03:00am 5.8 3.3 4.9 94 0.4 NE 7 9 4 5 1007.1 1007.1 8.2
20/02:30am 5.9 3.1 5.0 94 0.4 N 9 11 5 6 1007.3 1007.3 8.2
20/02:00am 6.4 4.1 5.5 94 0.4 NE 7 11 4 6 1007.0 1007.0 8.2
20/01:30am 6.3 5.2 5.3 93 0.4 CALM 0 0 0 0 1007.2 1007.2 8.2
20/01:00am 6.8 5.1 5.7 93 0.5 NE 4 7 2 4 1007.4 1007.4 8.2
20/12:30am 7.2 5.1 6.0 92 0.5 NE 6 7 3 4 1007.3 1007.3 8.2
20/12:00am 7.7 5.8 6.5 92 0.6 NE 6 7 3 4 1007.4 1007.4 8.2
 
Date/Time
EDT
Temp
°C
App
Temp
°C
Dew
Point
°C
Rel
Hum
%
Delta-T
°C
Wind Press
QNH
hPa
Press
MSL
hPa
Rain since
9am
mm
Dir  Spd
km/h
Gust
km/h
Spd
kts
Gust
kts
19/11:30pm 8.2 6.2 7.0 92 0.6 NNE 7 7 4 4 1007.5 1007.5 8.2
19/11:00pm 8.4 6.0 7.2 92 0.6 NNE 9 11 5 6 1007.5 1007.5 8.2
19/10:30pm 7.8 5.9 6.6 92 0.6 NE 6 7 3 4 1007.5 1007.5 8.2
19/10:00pm 8.3 5.9 6.9 91 0.7 E 9 11 5 6 1007.3 1007.3 8.2
19/09:30pm 8.9 5.9 7.5 91 0.7 SE 13 15 7 8 1007.0 1007.0 8.2
19/09:00pm 9.6 7.1 8.0 90 0.8 SSE 11 17 6 9 1006.9 1006.9 8.2
19/08:30pm 9.5 6.5 7.8 89 0.8 SSE 13 19 7 10 1006.4 1006.4 8.2
19/08:00pm 10.5 8.8 8.4 87 1.0 ESE 7 9 4 5 1005.8 1005.8 8.2
19/07:30pm 11.2 7.3 8.8 85 1.2 SE 19 26 10 14 1005.6 1005.6 8.2
19/07:00pm 12.3 7.8 8.4 77 1.9 SSE 22 32 12 17 1005.3 1005.3 8.2
19/06:30pm 12.5 8.7 9.0 79 1.8 S 19 26 10 14 1004.9 1004.9 8.2
19/06:00pm 12.1 8.4 9.3 83 1.4 S 19 24 10 13 1004.5 1004.5 8.2
19/05:30pm 14.7 11.1 8.2 65 3.3 S 17 24 9 13 1004.3 1004.3 7.4

Other Formats:

Comma delimited format used in spreadsheet applications
http://www.bom.gov.au/fwo/IDT60801/IDT60801.94956.axf

JavaScript Object Notation format (JSON) in row-major order
http://www.bom.gov.au/fwo/IDT60801/IDT60801.94956.json